EFPOEFTU

Guest
Details From EFPO - Pori
To EFTU - Turku
Flight Number -
Tags generated
Created
Modified
Stats Distance 59 nm / 108 km
Max Altitude 7,400 ft / 2,256 m
Waypoints 5
Social Downloads 0
Likes 0
Share VATSIM

Download

Looking for another format? Having issues loading an existing format? Contact us
Advertisement - Login to hide

Notes

Basic altitude profile: - Ascent Rate: 2500ft/min - Ascent Speed: 250kts - Cruise Altitude: 2000ft - Cruise Speed: 420kts - Descent Rate: 1500ft/min - Descent Speed: 250kts Options: - Use NATs: yes - Use PACOTS: yes - Use low airways: yes - Use high airways: yes

Route

EFPO TUSKU Y80 RUS EFTU

ID Type Via Altitude (ft/m) Position (lat/lon) Dist (leg/tot) Name
O EFPO APT - 0 / 0 61.46117 / 21.79925 - / 0 nm Pori
TUSKU FIX - 7,400 / 2,256 61.12472 / 21.96417 20 / 20 nm
NIRPU FIX Y80 (AWY-LO) 6,500 / 1,981 60.77417 / 22.13361 21 / 42 nm
RUS VOR Y80 (AWY-LO) 6,500 / 1,981 60.51519 / 22.25653 15 / 58 nm RUSKO VOR-DME
O EFTU APT - 0 / 0 60.51412 / 22.26281 0 / 58 nm Turku

Altitude Profile

Advertisement - Login to hide

EFPO

Details ICAO EFPO (POR)
Name Pori
Region Finland
Timezone Europe/Helsinki (UTC+3.0)
Stats Elevation 44 ft / 13 m (AMSL)
Location 61.461200° 21.799300°
Runways 2
Magnetic Variation 8.272° E

METAR

EFPO 200220Z AUTO 10003KT CAVOK 15/08 Q1014

Decode

TAF

Not found

Departure Runways

ID Width Length Bearing (true/mag) Surface Threshold Overrun Markings Lighting
12 197 ft / 60 m 7,722 ft / 2,354 m 125.74° / 117.47° ASPHALT 312 ft / 95 m 0 ft / 0 m PREC-APP EDGE THRESHOLD MALS
17 98 ft / 30 m 2,630 ft / 802 m 173.91° / 165.64° ASPHALT 0 ft / 0 m 817 ft / 249 m VISUAL
30 197 ft / 60 m 7,722 ft / 2,354 m 305.77° / 297.50° ASPHALT 1,132 ft / 345 m 0 ft / 0 m PREC-APP EDGE THRESHOLD ALSF-I
35 98 ft / 30 m 2,630 ft / 802 m 353.91° / 345.64° ASPHALT 0 ft / 0 m 558 ft / 170 m VISUAL

EFTU

Details ICAO EFTU (TKU)
Name Turku
Region Finland
Timezone Europe/Helsinki (UTC+3.0)
Stats Elevation 161 ft / 49 m (AMSL)
Location 60.514100° 22.262800°
Runways 1
Magnetic Variation 8.204° E

METAR

EFTU 200220Z AUTO 07005KT CAVOK 12/06 Q1014

Decode

TAF

TAF EFTU 192335Z 2000/2024 10006KT CAVOK TEMPO 2014/2018 SCT060CB PROB40 TEMPO 2018/2024 SCT060CB

Decode

Destination Runways

ID Width Length Bearing (true/mag) Surface Threshold Overrun Markings Lighting
08 197 ft / 60 m 8,210 ft / 2,502 m 84.82° / 76.62° ASPHALT 0 ft / 0 m 167 ft / 51 m PREC-APP EDGE THRESHOLD MALS
26 197 ft / 60 m 8,210 ft / 2,502 m 264.86° / 256.66° ASPHALT 0 ft / 0 m 49 ft / 15 m PREC-APP EDGE THRESHOLD CALVERT

Approach Navaids

Runway Type Ident Frequency Range Bearing (true/mag) Slope Elevation
26 GS TU 109.50 MHz 10 nm / 19 km 265.68° / 257.48 ° 3.00° 161 ft / 49 m (AMSL)
26 DME TU 109.50 MHz 18 nm / 33 km - - 200 ft / 61 m (AMSL)
26 LOC-ILS TU 109.50 MHz 18 nm / 33 km 264.82° / 256.61 ° - 161 ft / 49 m (AMSL)

Popular Alternatives